Time;durP1;ratioP1;P1;durP2;ratioP2;P2;SDS_P1;SDS_P2;PMS_P1;PMS_P2;Temp;Humidity;BMP_temperature;BMP_pressure;BME280_temperature;BME280_humidity;BME280_pressure;Samples;Min_cycle;Max_cycle;Signal;HPM_P1;HPM_P2
2021/07/04 00:00:35;;;;;;;1.00;1.00;;;14.60;99.90;;;;;;2088687;28;20172;-72
2021/07/04 00:01:35;;;;;;;1.00;1.00;;;14.60;99.90;;;;;;2088984;28;20649;-73
2021/07/04 00:02:36;;;;;;;1.20;1.10;;;14.50;99.90;;;;;;2088697;28;20188;-72
2021/07/04 00:03:37;;;;;;;1.03;1.03;;;14.50;99.90;;;;;;2089177;28;20619;-72
2021/07/04 00:04:38;;;;;;;1.30;1.27;;;14.50;99.90;;;;;;2088491;28;20180;-72
2021/07/04 00:05:48;;;;;;;1.23;1.10;;;14.50;99.90;;;;;;2088507;28;20180;-72
2021/07/04 00:06:49;;;;;;;1.77;1.65;;;14.50;99.90;;;;;;2088941;28;20601;-72
2021/07/04 00:07:50;;;;;;;2.43;1.47;;;14.40;99.90;;;;;;2089158;28;20215;-73
2021/07/04 00:08:50;;;;;;;1.10;1.08;;;14.40;99.90;;;;;;2089177;28;20175;-72
2021/07/04 00:09:51;;;;;;;0.77;0.77;;;14.40;99.90;;;;;;2088513;28;20195;-72
2021/07/04 00:11:02;;;;;;;2.73;1.87;;;14.40;99.90;;;;;;2088183;28;20191;-72
2021/07/04 00:12:04;;;;;;;1.23;1.17;;;14.40;99.90;;;;;;2088365;28;20204;-72
2021/07/04 00:13:05;;;;;;;1.50;1.40;;;14.40;99.90;;;;;;2088488;28;20181;-72
2021/07/04 00:14:06;;;;;;;1.65;1.48;;;14.40;99.90;;;;;;2088453;28;20544;-73
2021/07/04 00:15:11;;;;;;;1.37;1.27;;;14.40;99.90;;;;;;2080159;28;20185;-72
2021/07/04 00:16:11;;;;;;;3.10;1.38;;;14.40;99.90;;;;;;2088459;28;20263;-72
2021/07/04 00:17:12;;;;;;;1.80;1.50;;;14.30;99.90;;;;;;2089374;28;20639;-72
2021/07/04 00:18:19;;;;;;;2.97;1.13;;;14.40;99.90;;;;;;2094908;28;20183;-72
2021/07/04 00:19:21;;;;;;;0.68;0.68;;;14.40;99.90;;;;;;2094876;28;20172;-72
2021/07/04 00:20:23;;;;;;;0.70;0.70;;;14.30;99.90;;;;;;2088948;28;20735;-73
2021/07/04 00:21:24;;;;;;;1.20;1.17;;;14.30;99.90;;;;;;2089097;28;20168;-72
2021/07/04 00:22:25;;;;;;;0.90;0.90;;;14.20;99.90;;;;;;2089137;28;20176;-72
2021/07/04 00:23:26;;;;;;;1.53;1.43;;;14.20;99.90;;;;;;2089005;28;20160;-72
2021/07/04 00:24:27;;;;;;;1.75;1.65;;;14.10;99.90;;;;;;2088469;28;20180;-72
2021/07/04 00:25:29;;;;;;;4.87;1.00;;;14.10;99.90;;;;;;2088287;28;20165;-72
2021/07/04 00:26:30;;;;;;;1.55;1.45;;;14.10;99.90;;;;;;2088994;28;20717;-72
2021/07/04 00:27:30;;;;;;;2.03;1.70;;;14.20;99.90;;;;;;2089018;28;20176;-72
2021/07/04 00:28:31;;;;;;;1.17;1.17;;;14.20;99.90;;;;;;2089070;28;20185;-72
2021/07/04 00:29:32;;;;;;;0.83;0.83;;;14.20;99.90;;;;;;2088199;28;20196;-72
2021/07/04 00:30:33;;;;;;;1.87;1.77;;;14.20;99.90;;;;;;2088150;28;20652;-72
2021/07/04 00:31:34;;;;;;;1.40;1.30;;;14.20;99.90;;;;;;2091404;28;20704;-72
2021/07/04 00:32:35;;;;;;;1.47;1.30;;;14.20;99.90;;;;;;2096610;28;20194;-72
2021/07/04 00:33:36;;;;;;;1.17;1.07;;;14.20;99.90;;;;;;2096528;28;20176;-72
2021/07/04 00:34:37;;;;;;;2.00;1.23;;;14.20;99.90;;;;;;2096675;28;20182;-73
2021/07/04 00:35:38;;;;;;;0.90;0.90;;;14.20;99.90;;;;;;2096568;28;20179;-72
2021/07/04 00:36:38;;;;;;;2.30;1.47;;;14.20;99.90;;;;;;2089043;28;20188;-72
2021/07/04 00:37:39;;;;;;;2.27;1.23;;;14.20;99.90;;;;;;2088921;28;20183;-72
2021/07/04 00:38:40;;;;;;;0.97;0.97;;;14.20;99.90;;;;;;2088362;28;20172;-71
2021/07/04 00:39:41;;;;;;;1.00;1.00;;;14.20;99.90;;;;;;2088376;28;20184;-72
2021/07/04 00:40:43;;;;;;;3.67;1.70;;;14.20;99.90;;;;;;2089642;28;20184;-73
2021/07/04 00:41:43;;;;;;;2.95;1.75;;;14.30;99.90;;;;;;2089487;28;20175;-72
2021/07/04 00:42:45;;;;;;;0.80;0.80;;;14.30;99.90;;;;;;2089493;28;20204;-72
2021/07/04 00:43:47;;;;;;;1.23;1.23;;;14.30;99.90;;;;;;2088460;28;20280;-72
2021/07/04 00:44:48;;;;;;;1.00;1.00;;;14.20;99.90;;;;;;2088997;28;20550;-74
2021/07/04 00:45:49;;;;;;;1.10;1.10;;;14.20;99.90;;;;;;2088710;28;20551;-72
2021/07/04 00:46:50;;;;;;;1.67;1.57;;;14.20;99.90;;;;;;2088821;28;20169;-72
2021/07/04 00:47:52;;;;;;;1.63;1.40;;;14.20;99.90;;;;;;2088554;28;20200;-72
2021/07/04 00:48:53;;;;;;;1.00;1.00;;;14.20;99.90;;;;;;2080872;28;20171;-73
2021/07/04 00:49:53;;;;;;;0.93;0.93;;;14.20;99.90;;;;;;2088364;28;20555;-72
2021/07/04 00:50:54;;;;;;;1.23;1.20;;;14.30;99.90;;;;;;2088170;28;20184;-73
2021/07/04 00:51:56;;;;;;;1.07;1.07;;;14.30;99.90;;;;;;2088686;28;20214;-73
2021/07/04 00:52:59;;;;;;;2.28;1.73;;;14.40;99.90;;;;;;2089444;28;20188;-72
2021/07/04 00:54:00;;;;;;;1.63;1.52;;;14.40;99.90;;;;;;2088757;28;20179;-72
2021/07/04 00:55:03;;;;;;;1.00;1.00;;;14.40;99.90;;;;;;2080248;28;20619;-72
2021/07/04 00:56:04;;;;;;;1.77;1.38;;;14.40;99.90;;;;;;2080236;28;20189;-72
2021/07/04 00:57:06;;;;;;;1.15;1.15;;;14.40;99.90;;;;;;2088389;28;20168;-73
2021/07/04 00:58:06;;;;;;;1.65;1.55;;;14.40;99.90;;;;;;2088492;28;20287;-72
2021/07/04 00:59:07;;;;;;;3.80;1.53;;;14.40;99.90;;;;;;2080907;28;20316;-72
2021/07/04 01:00:12;;;;;;;1.60;1.40;;;14.40;99.90;;;;;;2089244;28;20181;-72
2021/07/04 01:01:13;;;;;;;1.38;1.27;;;14.40;99.90;;;;;;2082051;28;20188;-72
2021/07/04 01:02:13;;;;;;;1.73;1.47;;;14.30;99.90;;;;;;2081654;28;20177;-71
2021/07/04 01:03:14;;;;;;;1.57;1.40;;;14.30;99.90;;;;;;2089852;28;20204;-72
2021/07/04 01:04:15;;;;;;;1.37;1.27;;;14.30;99.90;;;;;;2081700;28;20177;-72
2021/07/04 01:05:20;;;;;;;3.03;1.47;;;14.30;99.90;;;;;;2081627;28;20284;-72
2021/07/04 01:06:21;;;;;;;0.98;0.98;;;14.40;99.90;;;;;;2089934;28;20176;-72
2021/07/04 01:07:23;;;;;;;1.40;1.35;;;14.40;99.90;;;;;;2089785;28;20267;-72
2021/07/04 01:08:24;;;;;;;1.75;1.65;;;14.40;99.90;;;;;;2090431;28;20647;-72
2021/07/04 01:09:25;;;;;;;1.55;1.35;;;14.50;99.90;;;;;;2089712;28;20576;-72
2021/07/04 01:10:29;;;;;;;1.57;1.47;;;14.40;99.90;;;;;;2081346;28;20193;-72
2021/07/04 01:11:29;;;;;;;2.85;1.33;;;14.40;99.90;;;;;;2073361;28;20190;-72
2021/07/04 01:12:30;;;;;;;2.00;1.13;;;14.30;99.90;;;;;;2081617;28;20734;-72
2021/07/04 01:13:32;;;;;;;1.63;1.30;;;14.40;99.90;;;;;;2089590;28;20169;-72
2021/07/04 01:14:33;;;;;;;1.75;1.35;;;14.40;99.90;;;;;;2089577;28;20176;-72
2021/07/04 01:15:35;;;;;;;1.27;1.27;;;14.30;99.90;;;;;;2090348;28;20173;-72
2021/07/04 01:16:35;;;;;;;1.17;1.13;;;14.40;99.90;;;;;;2090353;28;20642;-72
2021/07/04 01:17:38;;;;;;;1.13;0.97;;;14.30;99.90;;;;;;2089632;28;20168;-72
2021/07/04 01:18:39;;;;;;;2.80;2.13;;;14.40;99.90;;;;;;2081653;28;20711;-72
2021/07/04 01:19:39;;;;;;;2.33;1.03;;;14.50;99.90;;;;;;2089655;28;20168;-72
2021/07/04 01:20:41;;;;;;;4.07;1.67;;;14.50;99.90;;;;;;2089537;28;20525;-72
2021/07/04 01:21:43;;;;;;;1.50;1.40;;;14.40;99.90;;;;;;2089554;28;20666;-72
2021/07/04 01:23:12;;;;;;;0.57;0.57;;;14.40;99.90;;;;;;2089712;28;20243;-72
2021/07/04 01:24:14;;;;;;;0.93;0.93;;;14.40;99.90;;;;;;2090481;28;20177;-72
2021/07/04 01:25:15;;;;;;;1.00;1.00;;;14.40;99.90;;;;;;2090502;28;20180;-72
2021/07/04 01:26:16;;;;;;;6.82;2.00;;;14.40;99.90;;;;;;2090292;28;20204;-72
2021/07/04 01:27:17;;;;;;;0.93;0.93;;;14.40;99.90;;;;;;2090167;28;20712;-72
2021/07/04 01:28:18;;;;;;;1.73;1.43;;;14.30;99.90;;;;;;2089576;28;20189;-72
2021/07/04 01:29:19;;;;;;;0.95;0.95;;;14.30;99.90;;;;;;2081499;28;20417;-72
2021/07/04 01:30:21;;;;;;;0.80;0.80;;;14.30;99.90;;;;;;2081060;28;20639;-73
2021/07/04 01:31:21;;;;;;;3.30;1.92;;;14.30;99.90;;;;;;2081471;28;20227;-72
2021/07/04 01:32:22;;;;;;;1.70;1.40;;;14.30;99.90;;;;;;2089478;28;20180;-72
2021/07/04 01:33:24;;;;;;;1.40;1.30;;;14.30;99.90;;;;;;2090261;28;20168;-72
2021/07/04 01:34:25;;;;;;;2.35;1.50;;;14.30;99.90;;;;;;2090023;28;20853;-71
2021/07/04 01:35:26;;;;;;;2.03;1.27;;;14.30;99.90;;;;;;2090178;28;20181;-71
2021/07/04 01:36:27;;;;;;;3.55;2.22;;;14.30;99.90;;;;;;2090040;28;20241;-72
2021/07/04 01:37:27;;;;;;;0.97;0.97;;;14.30;99.90;;;;;;2090238;28;20265;-72
2021/07/04 01:38:28;;;;;;;1.47;1.23;;;14.30;99.90;;;;;;2089343;28;20232;-71
2021/07/04 01:39:29;;;;;;;1.77;1.53;;;14.30;99.90;;;;;;2089638;28;20203;-72
2021/07/04 01:40:31;;;;;;;0.60;0.60;;;14.30;99.90;;;;;;2089024;28;20189;-72
2021/07/04 01:41:34;;;;;;;1.88;1.42;;;14.30;99.90;;;;;;2089481;28;20567;-72
2021/07/04 01:42:34;;;;;;;3.90;1.70;;;14.30;99.90;;;;;;2090021;28;20176;-71
2021/07/04 01:43:35;;;;;;;1.27;1.17;;;14.30;99.90;;;;;;2081167;28;20179;-72
2021/07/04 01:44:36;;;;;;;1.40;1.30;;;14.30;99.90;;;;;;2081353;28;20169;-72
2021/07/04 01:45:38;;;;;;;1.47;1.33;;;14.30;99.90;;;;;;2090199;28;20164;-71
2021/07/04 01:46:39;;;;;;;1.80;1.70;;;14.30;99.90;;;;;;2090024;28;20161;-72
2021/07/04 01:47:41;;;;;;;3.10;1.80;;;14.30;99.90;;;;;;2090118;28;20219;-72
2021/07/04 01:48:41;;;;;;;1.17;1.15;;;14.30;99.90;;;;;;2089317;28;20203;-72
2021/07/04 01:49:42;;;;;;;3.10;2.13;;;14.40;99.90;;;;;;2089531;28;20637;-71
2021/07/04 01:50:48;;;;;;;1.10;0.90;;;14.30;99.90;;;;;;2089628;28;20189;-71
2021/07/04 01:51:48;;;;;;;1.42;1.23;;;14.30;99.90;;;;;;2089908;28;20678;-71
2021/07/04 01:52:49;;;;;;;1.63;1.53;;;14.30;99.90;;;;;;2080899;28;20201;-72
2021/07/04 01:53:50;;;;;;;1.30;1.20;;;14.30;99.90;;;;;;2064944;28;20612;-72
2021/07/04 01:54:51;;;;;;;1.30;1.20;;;14.30;99.90;;;;;;2080907;28;20169;-72
2021/07/04 01:55:51;;;;;;;2.13;1.10;;;14.30;99.90;;;;;;2089495;28;20538;-71
2021/07/04 01:56:52;;;;;;;2.17;1.97;;;14.30;99.90;;;;;;2089932;28;20606;-71
2021/07/04 01:57:54;;;;;;;1.57;1.47;;;14.30;99.90;;;;;;2089944;28;20163;-72
2021/07/04 01:58:55;;;;;;;0.88;0.88;;;14.20;99.90;;;;;;2089814;28;20169;-72
2021/07/04 02:00:00;;;;;;;1.20;1.13;;;14.20;99.90;;;;;;2089879;28;20169;-71
2021/07/04 02:01:02;;;;;;;1.77;1.50;;;14.20;99.90;;;;;;2089686;28;20280;-71
2021/07/04 02:02:03;;;;;;;1.38;1.27;;;14.30;99.90;;;;;;2089899;28;20252;-71
2021/07/04 02:03:08;;;;;;;2.50;1.80;;;14.30;99.90;;;;;;2088260;28;20176;-71
2021/07/04 02:04:09;;;;;;;1.65;1.52;;;14.30;99.90;;;;;;2092855;28;20261;-71
2021/07/04 02:05:10;;;;;;;2.23;1.57;;;14.30;99.90;;;;;;2093275;28;20245;-73
2021/07/04 02:06:10;;;;;;;1.52;1.42;;;14.30;99.90;;;;;;2094752;28;20383;-71
2021/07/04 02:07:18;;;;;;;1.60;1.50;;;14.30;99.90;;;;;;2097450;28;20262;-71
2021/07/04 02:08:19;;;;;;;2.47;1.48;;;14.30;99.90;;;;;;2090228;28;20585;-71
2021/07/04 02:09:20;;;;;;;1.43;1.40;;;14.30;99.90;;;;;;2097778;28;20179;-71
2021/07/04 02:10:30;;;;;;;1.43;1.03;;;14.30;99.90;;;;;;2097184;28;20192;-71
2021/07/04 02:11:31;;;;;;;1.85;1.55;;;14.40;99.90;;;;;;2090443;28;20179;-72
2021/07/04 02:12:32;;;;;;;1.47;1.37;;;14.30;99.90;;;;;;2081368;28;20276;-71
2021/07/04 02:13:33;;;;;;;1.70;1.30;;;14.30;99.90;;;;;;2095275;28;20192;-71
2021/07/04 02:14:34;;;;;;;1.73;1.50;;;14.30;99.90;;;;;;2104267;28;20236;-71
2021/07/04 02:15:39;;;;;;;2.20;1.00;;;14.40;99.90;;;;;;2099979;28;20174;-71
2021/07/04 02:16:39;;;;;;;2.45;2.08;;;14.40;99.90;;;;;;2098436;28;20159;-71
2021/07/04 02:17:40;;;;;;;2.13;1.30;;;14.40;99.90;;;;;;2098042;28;20267;-72
2021/07/04 02:18:43;;;;;;;1.38;1.23;;;14.50;99.90;;;;;;2097594;28;20600;-72
2021/07/04 02:19:43;;;;;;;2.78;1.88;;;14.40;99.90;;;;;;2089491;28;20176;-71
2021/07/04 02:20:51;;;;;;;1.33;1.20;;;14.50;99.90;;;;;;2097322;28;20184;-72
2021/07/04 02:21:53;;;;;;;1.15;1.10;;;14.50;99.90;;;;;;2098054;28;20540;-72
2021/07/04 02:22:54;;;;;;;1.65;1.55;;;14.50;99.90;;;;;;2098260;28;20184;-72
2021/07/04 02:23:55;;;;;;;1.27;1.20;;;14.50;99.90;;;;;;2089084;28;20225;-72
2021/07/04 02:24:55;;;;;;;1.53;1.43;;;14.50;99.90;;;;;;2089354;28;20267;-72
2021/07/04 02:25:58;;;;;;;1.87;1.33;;;14.40;99.90;;;;;;2098058;28;20236;-72
2021/07/04 02:26:59;;;;;;;2.50;1.48;;;14.50;99.90;;;;;;2097416;28;20670;-72
2021/07/04 02:28:00;;;;;;;2.05;1.17;;;14.50;99.90;;;;;;2097323;28;20294;-72
2021/07/04 02:29:01;;;;;;;1.57;1.47;;;14.50;99.90;;;;;;2089150;28;20258;-72
2021/07/04 02:30:03;;;;;;;2.30;1.77;;;14.50;99.90;;;;;;2086855;28;20212;-72
2021/07/04 02:31:04;;;;;;;1.98;1.88;;;14.50;99.90;;;;;;2097327;28;20248;-72
2021/07/04 02:32:06;;;;;;;1.33;1.23;;;14.50;99.90;;;;;;2097083;28;20253;-72
2021/07/04 02:33:10;;;;;;;2.28;1.70;;;14.50;99.90;;;;;;2089166;28;20192;-72
2021/07/04 02:34:11;;;;;;;1.23;1.08;;;14.50;99.90;;;;;;2089506;28;20482;-72
2021/07/04 02:35:12;;;;;;;1.75;1.65;;;14.50;99.90;;;;;;2089242;28;20627;-72
2021/07/04 02:36:13;;;;;;;3.08;1.75;;;14.50;99.90;;;;;;2089204;28;20165;-72
2021/07/04 02:37:13;;;;;;;1.47;1.23;;;14.50;99.90;;;;;;2097886;28;20640;-72
2021/07/04 02:38:15;;;;;;;3.67;1.70;;;14.40;99.90;;;;;;2097927;28;20164;-72
2021/07/04 02:39:16;;;;;;;1.33;1.23;;;14.50;99.90;;;;;;2097425;28;20175;-72
2021/07/04 02:40:17;;;;;;;0.90;0.90;;;14.50;99.90;;;;;;2088819;28;20211;-72
2021/07/04 02:41:18;;;;;;;3.87;1.50;;;14.40;99.90;;;;;;2097395;28;20172;-72
2021/07/04 02:42:18;;;;;;;0.50;0.50;;;14.50;99.90;;;;;;2097936;28;20175;-72
2021/07/04 02:43:22;;;;;;;1.30;1.20;;;14.50;99.90;;;;;;2097977;28;20224;-72
2021/07/04 02:44:23;;;;;;;1.30;1.20;;;14.50;99.90;;;;;;2097918;28;20668;-72
2021/07/04 02:45:25;;;;;;;1.57;1.47;;;14.40;99.90;;;;;;2097928;28;20171;-72
2021/07/04 02:46:26;;;;;;;0.95;0.95;;;14.40;99.90;;;;;;2097158;28;20176;-72
2021/07/04 02:47:31;;;;;;;1.83;1.35;;;14.40;99.90;;;;;;2089003;28;20175;-73
2021/07/04 02:48:32;;;;;;;1.30;1.13;;;14.40;99.90;;;;;;2097429;28;20180;-72
2021/07/04 02:49:32;;;;;;;1.20;1.20;;;14.40;99.90;;;;;;2097283;28;20638;-72
2021/07/04 02:50:34;;;;;;;2.70;1.20;;;14.30;99.90;;;;;;2096999;28;20192;-72
2021/07/04 02:51:35;;;;;;;1.42;1.27;;;14.30;99.90;;;;;;2097733;28;20279;-72
2021/07/04 02:52:36;;;;;;;2.25;1.55;;;14.20;99.90;;;;;;2097175;28;20176;-73
2021/07/04 02:53:36;;;;;;;1.60;1.50;;;14.30;99.90;;;;;;2097268;28;20168;-72
2021/07/04 02:54:37;;;;;;;1.60;1.27;;;14.30;99.90;;;;;;2105699;28;20655;-72
2021/07/04 02:55:38;;;;;;;1.43;1.30;;;14.30;99.90;;;;;;2097054;28;20238;-72
2021/07/04 02:56:39;;;;;;;1.85;1.45;;;14.30;99.90;;;;;;2097473;28;20171;-72
2021/07/04 02:57:40;;;;;;;1.00;1.00;;;14.30;99.90;;;;;;2097893;28;20168;-72
2021/07/04 02:58:40;;;;;;;1.20;1.07;;;14.30;99.90;;;;;;2097661;28;20176;-71
2021/07/04 02:59:41;;;;;;;2.23;1.37;;;14.30;99.90;;;;;;2097947;28;20183;-71
2021/07/04 03:00:44;;;;;;;1.23;1.07;;;14.20;99.90;;;;;;2096841;28;20192;-72
2021/07/04 03:01:45;;;;;;;1.65;1.38;;;14.20;99.90;;;;;;2097082;28;20196;-71
2021/07/04 03:02:46;;;;;;;1.10;1.00;;;14.30;99.90;;;;;;2097140;28;20172;-71
2021/07/04 03:03:47;;;;;;;1.15;1.15;;;14.30;99.90;;;;;;2096973;28;20164;-72
2021/07/04 03:04:49;;;;;;;1.07;1.07;;;14.30;99.90;;;;;;2097056;28;20168;-72
2021/07/04 03:05:50;;;;;;;1.38;1.35;;;14.30;99.90;;;;;;2096868;28;20183;-72
2021/07/04 03:06:51;;;;;;;0.80;0.80;;;14.20;99.90;;;;;;2097215;28;20571;-72
2021/07/04 03:07:52;;;;;;;1.37;1.27;;;14.20;99.90;;;;;;2097096;28;20176;-72
2021/07/04 03:08:53;;;;;;;1.23;0.87;;;14.30;99.90;;;;;;2097045;28;20184;-72
2021/07/04 03:09:53;;;;;;;1.40;1.27;;;14.20;99.90;;;;;;2096997;28;20218;-72
2021/07/04 03:10:54;;;;;;;1.20;1.13;;;14.20;99.90;;;;;;2096670;28;20682;-72
2021/07/04 03:11:58;;;;;;;0.93;0.93;;;14.20;99.90;;;;;;2096844;28;20329;-72
2021/07/04 03:12:59;;;;;;;8.30;1.35;;;14.20;99.90;;;;;;2097642;28;20176;-72
2021/07/04 03:13:59;;;;;;;0.77;0.77;;;14.20;99.90;;;;;;2096952;28;20207;-72
2021/07/04 03:15:01;;;;;;;0.87;0.80;;;14.20;99.90;;;;;;2088675;28;20179;-72
2021/07/04 03:16:02;;;;;;;1.88;1.27;;;14.20;99.90;;;;;;2080627;28;20256;-72
2021/07/04 03:17:03;;;;;;;1.20;1.20;;;14.20;99.90;;;;;;2097004;28;20175;-72
2021/07/04 03:18:04;;;;;;;1.80;1.52;;;14.20;99.90;;;;;;2096898;28;20180;-72
2021/07/04 03:19:05;;;;;;;1.43;1.37;;;14.20;99.90;;;;;;2097164;28;20176;-72
2021/07/04 03:20:11;;;;;;;1.10;1.00;;;14.10;99.90;;;;;;2096566;28;20178;-73
2021/07/04 03:21:12;;;;;;;0.88;0.88;;;14.10;99.90;;;;;;2096932;28;20196;-73
2021/07/04 03:22:13;;;;;;;1.03;1.03;;;14.10;99.90;;;;;;2096633;28;20168;-72
2021/07/04 03:23:14;;;;;;;2.93;1.43;;;14.00;99.90;;;;;;2097238;28;20469;-72
2021/07/04 03:24:14;;;;;;;1.17;1.17;;;14.10;99.90;;;;;;2097058;28;20413;-72
2021/07/04 03:25:17;;;;;;;1.50;1.40;;;14.00;99.90;;;;;;2097041;28;20180;-72
2021/07/04 03:26:20;;;;;;;1.05;0.98;;;14.00;99.90;;;;;;2097002;28;20171;-72
2021/07/04 03:27:21;;;;;;;1.35;1.30;;;14.10;99.90;;;;;;2097802;28;20172;-72
2021/07/04 03:28:22;;;;;;;1.50;1.40;;;14.00;99.90;;;;;;2097141;28;20305;-72
2021/07/04 03:29:23;;;;;;;1.70;1.55;;;14.00;99.90;;;;;;2088737;28;20169;-72
2021/07/04 03:30:24;;;;;;;1.40;1.30;;;14.10;99.90;;;;;;2097205;28;20571;-72
2021/07/04 03:31:25;;;;;;;1.60;1.43;;;14.10;99.90;;;;;;2097316;28;20195;-72
2021/07/04 03:32:26;;;;;;;1.60;1.50;;;14.10;99.90;;;;;;2097531;28;20175;-72
2021/07/04 03:33:29;;;;;;;1.67;1.57;;;14.10;99.90;;;;;;2097630;28;20233;-72
2021/07/04 03:34:30;;;;;;;2.22;1.45;;;14.10;99.90;;;;;;2097043;28;20250;-72
2021/07/04 03:35:30;;;;;;;0.88;0.88;;;14.10;99.90;;;;;;2088617;28;20734;-72
2021/07/04 03:36:31;;;;;;;1.40;1.33;;;14.10;99.90;;;;;;2088654;28;20187;-72
2021/07/04 03:37:32;;;;;;;1.57;1.33;;;14.20;99.90;;;;;;2105184;28;20186;-72
2021/07/04 03:38:34;;;;;;;2.22;1.60;;;14.20;99.90;;;;;;2096937;28;20190;-72
2021/07/04 03:39:34;;;;;;;1.30;1.20;;;14.20;99.90;;;;;;2096785;28;20621;-72
2021/07/04 03:40:35;;;;;;;2.00;1.63;;;14.20;99.90;;;;;;2097438;28;20195;-72
2021/07/04 03:41:36;;;;;;;1.03;1.03;;;14.30;99.90;;;;;;2097413;28;20270;-72
2021/07/04 03:42:38;;;;;;;2.13;1.37;;;14.30;99.90;;;;;;2097769;28;20191;-72
2021/07/04 03:43:39;;;;;;;1.27;1.23;;;14.20;99.90;;;;;;2097539;28;20182;-73
2021/07/04 03:44:39;;;;;;;1.20;1.20;;;14.10;99.90;;;;;;2097007;28;20653;-72
2021/07/04 03:45:40;;;;;;;1.13;1.13;;;14.10;99.90;;;;;;2096778;28;20179;-72
2021/07/04 03:46:41;;;;;;;1.17;1.10;;;14.20;99.90;;;;;;2096885;28;20171;-73
2021/07/04 03:47:42;;;;;;;1.70;1.60;;;14.10;99.90;;;;;;2097725;28;20186;-72
2021/07/04 03:48:43;;;;;;;1.70;1.60;;;14.10;99.90;;;;;;2097060;28;20489;-72
2021/07/04 03:49:43;;;;;;;7.10;1.50;;;14.20;99.90;;;;;;2096854;28;20179;-72
2021/07/04 03:50:44;;;;;;;1.30;1.20;;;14.20;99.90;;;;;;2097157;28;20190;-72
2021/07/04 03:51:45;;;;;;;1.27;1.17;;;14.20;99.90;;;;;;2096606;28;20203;-72
2021/07/04 03:52:48;;;;;;;1.80;1.13;;;14.20;99.90;;;;;;2088715;28;20185;-72
2021/07/04 03:53:49;;;;;;;1.52;1.40;;;14.20;99.90;;;;;;2088789;28;20323;-72
2021/07/04 03:54:50;;;;;;;1.10;1.10;;;14.20;99.90;;;;;;2096829;28;20646;-73
2021/07/04 03:55:50;;;;;;;2.17;2.00;;;14.20;99.90;;;;;;2096852;28;20700;-72
2021/07/04 03:56:51;;;;;;;1.53;1.23;;;14.20;99.90;;;;;;2096860;28;20226;-72
2021/07/04 03:57:53;;;;;;;0.95;0.95;;;14.20;99.90;;;;;;2097357;28;20267;-72
2021/07/04 03:58:53;;;;;;;1.38;1.20;;;14.30;99.90;;;;;;2097527;28;20180;-72
2021/07/04 03:59:57;;;;;;;1.03;1.03;;;14.30;99.90;;;;;;2096689;28;20175;-72
2021/07/04 04:00:58;;;;;;;0.90;0.90;;;14.20;99.90;;;;;;2096798;28;20176;-72
2021/07/04 04:01:59;;;;;;;1.20;1.10;;;14.10;99.90;;;;;;2097331;28;20179;-72
2021/07/04 04:03:00;;;;;;;2.57;2.10;;;14.10;99.90;;;;;;2095324;28;20179;-72
2021/07/04 04:04:01;;;;;;;1.13;1.03;;;14.10;99.90;;;;;;2095633;28;20499;-71
2021/07/04 04:05:03;;;;;;;1.47;1.37;;;14.10;99.90;;;;;;2105025;28;20201;-71
2021/07/04 04:06:03;;;;;;;2.17;1.80;;;14.20;99.90;;;;;;2088514;28;20192;-72
2021/07/04 04:07:04;;;;;;;1.07;0.97;;;14.20;99.90;;;;;;2088699;28;20248;-72
2021/07/04 04:08:07;;;;;;;0.97;0.90;;;14.20;99.90;;;;;;2088924;28;20189;-72
2021/07/04 04:09:07;;;;;;;2.53;2.33;;;14.20;99.90;;;;;;2091443;28;20824;-71
2021/07/04 04:10:10;;;;;;;0.90;0.90;;;14.30;99.90;;;;;;2091470;28;20184;-71
2021/07/04 04:11:12;;;;;;;1.02;1.02;;;14.30;99.90;;;;;;2090281;28;20176;-72
2021/07/04 04:12:13;;;;;;;1.33;1.23;;;14.30;99.90;;;;;;2087665;28;20248;-72
2021/07/04 04:13:14;;;;;;;2.08;1.80;;;14.40;99.90;;;;;;2095037;28;20184;-73
2021/07/04 04:14:15;;;;;;;1.50;1.40;;;14.40;99.90;;;;;;2096690;28;20175;-73
2021/07/04 04:15:15;;;;;;;1.40;1.23;;;14.40;99.90;;;;;;2089142;28;20180;-73
2021/07/04 04:16:16;;;;;;;1.40;1.30;;;14.40;99.90;;;;;;2088326;28;20195;-73
2021/07/04 04:17:17;;;;;;;2.83;1.67;;;14.40;99.90;;;;;;2088567;28;20267;-73
2021/07/04 04:18:18;;;;;;;2.10;1.40;;;14.40;99.90;;;;;;2096713;28;20168;-73
2021/07/04 04:19:19;;;;;;;2.75;2.35;;;14.40;99.90;;;;;;2096583;28;20164;-73
2021/07/04 04:20:20;;;;;;;0.80;0.80;;;14.40;99.90;;;;;;2088786;28;20185;-74
2021/07/04 04:21:21;;;;;;;1.30;0.97;;;14.40;99.90;;;;;;2088925;28;20622;-73
2021/07/04 04:22:21;;;;;;;1.17;1.10;;;14.40;99.90;;;;;;2089128;28;20176;-74
2021/07/04 04:23:23;;;;;;;2.10;1.23;;;14.40;99.90;;;;;;2088414;28;20179;-73
2021/07/04 04:24:24;;;;;;;1.77;1.67;;;14.40;99.90;;;;;;2088434;28;20172;-73
2021/07/04 04:25:25;;;;;;;3.23;1.73;;;14.40;99.90;;;;;;2089030;28;20290;-73
2021/07/04 04:26:26;;;;;;;1.33;1.23;;;14.30;99.90;;;;;;2088623;28;20571;-73
2021/07/04 04:27:26;;;;;;;1.43;1.33;;;14.30;99.90;;;;;;2088438;28;20269;-73
2021/07/04 04:28:27;;;;;;;1.80;1.43;;;14.30;99.90;;;;;;2089088;28;20173;-73
2021/07/04 04:29:28;;;;;;;1.00;1.00;;;14.30;99.90;;;;;;2088867;28;20318;-73
2021/07/04 04:30:28;;;;;;;1.33;1.23;;;14.30;99.90;;;;;;2088770;28;20726;-73
2021/07/04 04:31:29;;;;;;;1.00;1.00;;;14.30;99.90;;;;;;2088880;28;20169;-73
2021/07/04 04:32:30;;;;;;;1.37;1.23;;;14.30;99.90;;;;;;2090570;28;20176;-73
2021/07/04 04:33:31;;;;;;;0.80;0.80;;;14.40;99.90;;;;;;2097227;28;20196;-72
2021/07/04 04:34:31;;;;;;;2.83;1.43;;;14.40;99.90;;;;;;2098821;28;20191;-73
2021/07/04 04:35:32;;;;;;;1.60;1.37;;;14.40;99.90;;;;;;2098239;28;20191;-72
2021/07/04 04:36:33;;;;;;;1.47;1.37;;;14.50;99.90;;;;;;2098201;28;20172;-73
2021/07/04 04:37:33;;;;;;;1.20;1.10;;;14.50;99.90;;;;;;2098585;28;20174;-72
2021/07/04 04:38:34;;;;;;;1.20;1.20;;;14.50;99.90;;;;;;2098020;28;20213;-72
2021/07/04 04:39:35;;;;;;;2.23;1.70;;;14.50;99.90;;;;;;2097933;28;20164;-72
2021/07/04 04:40:36;;;;;;;0.97;0.97;;;14.50;99.90;;;;;;2097719;28;20287;-72
2021/07/04 04:41:36;;;;;;;1.33;1.23;;;14.60;99.90;;;;;;2097901;28;20341;-73
2021/07/04 04:42:37;;;;;;;1.47;1.37;;;14.50;99.90;;;;;;2098629;28;20172;-72
2021/07/04 04:43:38;;;;;;;1.97;1.77;;;14.40;99.90;;;;;;2098495;28;20635;-72
2021/07/04 04:44:38;;;;;;;1.77;1.57;;;14.40;99.90;;;;;;2098602;28;20171;-72
2021/07/04 04:45:39;;;;;;;1.67;1.33;;;14.40;99.90;;;;;;2097968;28;20179;-72
2021/07/04 04:46:40;;;;;;;1.33;1.23;;;14.40;99.90;;;;;;2098139;28;20271;-72
2021/07/04 04:47:41;;;;;;;2.93;1.93;;;14.40;99.90;;;;;;2098578;28;20313;-73
2021/07/04 04:48:43;;;;;;;2.17;1.33;;;14.40;99.90;;;;;;2098747;28;20654;-72
2021/07/04 04:49:44;;;;;;;1.90;1.40;;;14.40;99.90;;;;;;2097941;28;20229;-72
2021/07/04 04:50:45;;;;;;;1.13;1.03;;;14.40;99.90;;;;;;2097555;28;20292;-72
2021/07/04 04:51:45;;;;;;;1.30;1.13;;;14.40;99.90;;;;;;2097875;28;20199;-72
2021/07/04 04:52:46;;;;;;;1.67;1.47;;;14.40;99.90;;;;;;2098606;28;20168;-72
2021/07/04 04:53:46;;;;;;;1.80;1.63;;;14.50;99.90;;;;;;2098573;28;20187;-72
2021/07/04 04:54:47;;;;;;;1.33;1.20;;;14.50;99.90;;;;;;2098484;28;20684;-72
2021/07/04 04:55:48;;;;;;;1.87;1.77;;;14.50;99.90;;;;;;2098461;28;20172;-72
2021/07/04 04:56:49;;;;;;;1.27;1.17;;;14.50;99.90;;;;;;2098531;28;20179;-72
2021/07/04 04:57:50;;;;;;;1.53;1.43;;;14.60;99.90;;;;;;2097878;28;20172;-73
2021/07/04 04:58:50;;;;;;;1.23;1.20;;;14.60;99.90;;;;;;2097848;28;20221;-72
2021/07/04 04:59:51;;;;;;;1.90;1.47;;;14.60;99.90;;;;;;2097890;28;20661;-72
2021/07/04 05:00:52;;;;;;;1.50;1.40;;;14.50;99.90;;;;;;2097408;28;20283;-73
2021/07/04 05:01:52;;;;;;;1.13;1.10;;;14.40;99.90;;;;;;2098431;28;20532;-72
2021/07/04 05:02:53;;;;;;;2.27;1.57;;;14.30;99.90;;;;;;2097759;28;20627;-72
2021/07/04 05:03:55;;;;;;;1.40;1.30;;;14.30;99.90;;;;;;2097903;28;20175;-72
2021/07/04 05:04:56;;;;;;;2.28;1.60;;;14.30;99.90;;;;;;2097644;28;20182;-72
2021/07/04 05:05:57;;;;;;;2.07;1.87;;;14.30;99.90;;;;;;2097941;28;20177;-72
2021/07/04 05:06:57;;;;;;;1.23;1.13;;;14.40;99.90;;;;;;2097688;28;20172;-72
2021/07/04 05:07:58;;;;;;;1.33;1.23;;;14.40;99.90;;;;;;2089548;28;20226;-72
2021/07/04 05:08:59;;;;;;;1.17;1.13;;;14.40;99.90;;;;;;2097806;28;20179;-72
2021/07/04 05:10:00;;;;;;;1.40;1.30;;;14.30;99.90;;;;;;2097735;28;20178;-72
2021/07/04 05:11:00;;;;;;;1.27;1.17;;;14.30;99.90;;;;;;2097572;28;20258;-72
2021/07/04 05:12:01;;;;;;;1.50;1.40;;;14.20;99.90;;;;;;2097749;28;20207;-72
2021/07/04 05:13:02;;;;;;;1.67;1.52;;;14.20;99.90;;;;;;2097609;28;20736;-72
2021/07/04 05:14:03;;;;;;;1.50;1.37;;;14.20;99.90;;;;;;2097800;28;20309;-72
2021/07/04 05:15:05;;;;;;;1.60;1.47;;;14.20;99.90;;;;;;2097719;28;20179;-72
2021/07/04 05:16:06;;;;;;;1.98;1.17;;;14.10;99.90;;;;;;2089536;28;20173;-72
2021/07/04 05:17:07;;;;;;;1.02;1.02;;;14.10;99.90;;;;;;2097668;28;20176;-72
2021/07/04 05:18:07;;;;;;;2.57;1.40;;;14.00;99.90;;;;;;2097746;28;20688;-72
2021/07/04 05:19:08;;;;;;;1.97;1.53;;;14.00;99.90;;;;;;2098322;28;20168;-72
2021/07/04 05:20:10;;;;;;;1.80;1.30;;;13.90;99.90;;;;;;2098126;28;20262;-73